Latest Weather Observations for Cairns

IDQ60801

Issued at 5:32 am EST Monday 17 December 2018 (issued every 10 minutes, with the page automatically refreshed every 10 minutes)

About weather observations | Map of weather stations | Latest weather observations for QLD | Other Formats
Station Details ID: 031011 Name: CAIRNS AERO Lat: -16.87 Lon: 145.75 Height: 2.22 m
Data from the previous 72 hours. | See also: Recent months at Cairns
Date/Time
EST
Temp
°C
App
Temp
°C
Dew
Point
°C
Rel
Hum
%
Delta-T
°C
Wind Press
QNH
hPa
Press
MSL
hPa
Rain since
9am
mm
Dir  Spd
km/h
Gust
km/h
Spd
kts
Gust
kts
17/05:00am 22.7 27.2 21.5 93 0.8 CALM 0 0 0 0 1004.5 1004.4 0.0
17/04:30am 24.0 28.7 22.6 92 0.9 ENE 2 7 1 4 1004.2 1004.1 0.0
17/04:00am 24.0 26.6 22.6 92 0.9 WSW 13 20 7 11 1004.1 1004.0 0.0
17/03:30am 23.4 28.1 22.7 96 0.5 W 2 7 1 4 1004.0 1003.9 0.0
17/03:00am 23.5 28.7 22.8 96 0.5 CALM 0 0 0 0 1003.9 1003.8 0.0
17/02:30am 23.8 29.1 23.1 96 0.5 CALM 0 0 0 0 1003.9 1003.8 0.0
17/02:00am 24.1 29.4 23.1 94 0.7 CALM 0 4 0 2 1003.9 1003.8 0.0
17/01:30am 24.1 29.4 23.1 94 0.7 CALM 0 0 0 0 1004.0 1003.9 0.0
17/01:00am 24.4 28.5 23.2 93 0.8 W 7 9 4 5 1004.2 1004.1 0.0
17/12:30am 25.2 29.7 24.0 93 0.8 SSW 7 11 4 6 1004.4 1004.3 0.0
17/12:00am 26.2 31.0 24.4 90 1.2 SSE 7 15 4 8 1004.8 1004.7 0.0
 
Date/Time
EST
Temp
°C
App
Temp
°C
Dew
Point
°C
Rel
Hum
%
Delta-T
°C
Wind Press
QNH
hPa
Press
MSL
hPa
Rain since
9am
mm
Dir  Spd
km/h
Gust
km/h
Spd
kts
Gust
kts
16/11:30pm 25.5 31.6 24.5 94 0.7 CALM 0 0 0 0 1005.1 1005.0 0.0
16/11:00pm 25.9 31.0 24.9 94 0.7 W 7 9 4 5 1005.2 1005.1 0.0
16/10:30pm 25.9 32.2 24.7 93 0.8 CALM 0 0 0 0 1005.1 1005.0 0.0
16/10:00pm 26.2 31.2 24.8 92 1.0 W 7 9 4 5 1004.9 1004.8 0.0
16/09:30pm 26.8 31.9 25.0 90 1.3 W 7 9 4 5 1004.5 1004.4 0.0
16/09:00pm 27.1 33.6 25.1 89 1.4 CALM 0 0 0 0 1004.1 1004.0 0.0
16/08:30pm 27.2 32.5 25.0 88 1.5 NNW 6 7 3 4 1003.9 1003.8 0.0
16/08:00pm 27.9 33.2 25.3 86 1.8 NE 7 11 4 6 1003.6 1003.5 0.0
16/07:30pm 28.0 33.0 25.4 86 1.8 N 9 13 5 7 1003.5 1003.4 0.0
16/07:00pm 28.4 33.8 25.4 84 2.1 NNE 7 11 4 6 1003.1 1003.0 0.0
16/06:30pm 28.9 33.6 24.9 79 2.8 NNE 9 13 5 7 1002.8 1002.7 0.0
16/06:00pm 29.4 33.9 25.2 78 3.0 NNE 11 15 6 8 1002.2 1002.1 0.0
16/05:30pm 29.7 34.2 25.2 77 3.2 NE 11 17 6 9 1001.9 1001.8 0.0
16/05:00pm 30.3 34.8 25.8 77 3.2 NE 13 19 7 10 1001.6 1001.5 0.0
16/04:30pm 30.6 34.3 25.2 73 3.8 NE 15 22 8 12 1001.2 1001.1 0.0
16/04:00pm 32.3 34.4 23.8 61 5.9 ENE 19 28 10 15 1000.7 1000.6 0.0
16/03:30pm 32.4 33.4 24.2 62 5.7 ENE 26 33 14 18 1000.5 1000.4 0.0
16/03:00pm 33.7 36.1 23.7 56 7.0 E 17 30 9 16 1000.5 1000.4 0.0
16/02:30pm 35.3 39.1 21.6 45 9.3 WNW 4 9 2 5 1000.5 1000.4 0.0
16/02:00pm 35.3 37.1 19.6 39 10.5 WSW 9 17 5 9 1001.0 1000.9 0.0
16/01:30pm 34.7 38.9 23.4 52 7.9 SSE 7 13 4 7 1001.4 1001.3 0.0
16/01:00pm 34.0 37.2 23.1 53 7.6 S 11 17 6 9 1001.9 1001.8 0.0
16/12:30pm 33.0 35.3 22.7 54 7.1 WSW 15 24 8 13 1002.3 1002.2 0.0
16/12:00pm 32.6 34.3 23.0 57 6.6 WSW 19 32 10 17 1002.8 1002.7 0.0
16/11:30am 32.0 33.8 23.3 60 6.0 W 19 28 10 15 1003.1 1003.0 0.0
16/11:00am 31.6 33.9 23.4 61 5.7 WSW 17 26 9 14 1003.3 1003.2 0.0
16/10:30am 31.7 33.3 23.2 60 5.9 WSW 20 32 11 17 1003.4 1003.3 0.0
16/10:00am 30.8 33.1 23.5 65 5.1 WSW 17 30 9 16 1003.6 1003.5 0.0
16/09:30am 31.1 35.1 23.7 64 5.1 W 9 19 5 10 1003.7 1003.6 0.0
16/09:00am 30.1 34.4 24.3 71 4.1 S 9 13 5 7 1003.8 1003.7 51.4
16/08:30am 29.3 32.4 22.8 68 4.4 WNW 11 28 6 15 1003.9 1003.8 51.4
16/08:00am 28.3 31.9 23.0 73 3.6 NW 9 13 5 7 1003.9 1003.8 51.4
16/07:30am 27.6 31.7 23.0 76 3.1 WNW 6 9 3 5 1003.7 1003.6 51.4
16/07:00am 26.8 28.5 22.4 77 3.0 WSW 17 32 9 17 1003.2 1003.1 51.4
16/06:30am 26.7 28.4 22.3 77 3.0 W 17 26 9 14 1002.8 1002.7 51.4
16/06:00am 26.6 28.7 22.4 78 2.8 W 15 24 8 13 1002.2 1002.1 51.4
16/05:30am 25.9 30.3 22.8 83 2.1 NNW 4 9 2 5 1001.4 1001.3 51.4
16/05:00am 26.3 28.7 23.0 82 2.2 WNW 15 22 8 12 1000.8 1000.7 51.4
16/04:30am 25.4 29.5 22.9 86 1.7 WSW 6 9 3 5 1000.6 1000.5 51.4
16/04:00am 25.8 29.3 22.9 84 2.0 NW 9 13 5 7 1000.4 1000.3 51.4
16/03:30am 26.4 29.5 22.9 81 2.4 SSW 11 20 6 11 1000.0 999.9 51.4
16/03:00am 26.3 28.2 22.8 81 2.4 NW 17 26 9 14 999.6 999.5 51.4
16/02:30am 26.8 28.9 23.1 80 2.5 WNW 17 30 9 16 1000.0 999.9 51.4
16/02:00am 26.5 28.8 23.4 83 2.1 WNW 17 28 9 15 1000.4 1000.3 51.4
16/01:30am 27.3 31.7 24.4 84 2.0 NW 9 17 5 9 1000.5 1000.4 51.4
16/01:00am 27.1 31.0 24.9 88 1.5 NW 13 15 7 8 1000.6 1000.5 51.4
16/12:30am 26.9 32.3 26.0 95 0.6 W 9 13 5 7 1001.0 1000.9 51.4
16/12:00am 26.9 32.7 26.0 95 0.6 NNW 7 9 4 5 1001.2 1001.1 51.4
 
Date/Time
EST
Temp
°C
App
Temp
°C
Dew
Point
°C
Rel
Hum
%
Delta-T
°C
Wind Press
QNH
hPa
Press
MSL
hPa
Rain since
9am
mm
Dir  Spd
km/h
Gust
km/h
Spd
kts
Gust
kts
15/11:30pm 27.2 32.9 26.5 96 0.5 W 9 9 5 5 1001.9 1001.8 51.4
15/11:00pm 27.3 33.0 26.4 95 0.6 W 9 13 5 7 1001.8 1001.7 51.4
15/10:30pm 27.2 32.9 26.5 96 0.5 WNW 9 11 5 6 1001.9 1001.8 51.4
15/10:00pm 27.4 32.0 26.5 95 0.6 N 15 19 8 10 1002.2 1002.1 51.4
15/09:44pm 27.3 31.7 26.2 94 0.8 N 15 24 8 13 1002.3 1002.2 51.4
15/09:30pm 27.2 32.4 26.3 95 0.6 NNW 11 20 6 11 1002.3 1002.2 51.4
15/09:00pm 27.2 29.8 26.1 94 0.8 N 24 37 13 20 1001.9 1001.8 51.4
15/08:43pm 27.5 30.8 26.6 95 0.6 N 22 33 12 18 1001.6 1001.5 51.0
15/08:30pm 27.4 31.6 26.5 95 0.6 NNW 17 26 9 14 1001.1 1001.0 51.0
15/08:00pm 27.2 31.8 26.5 96 0.5 N 15 26 8 14 1001.5 1001.4 49.4
15/07:30pm 27.4 31.0 26.5 95 0.6 N 20 33 11 18 1001.8 1001.7 46.6
15/07:00pm 26.8 31.0 25.9 95 0.6 N 15 22 8 12 1001.6 1001.5 43.2
15/06:55pm 27.0 30.9 26.0 94 0.7 N 17 24 9 13 1001.7 1001.6 42.0
15/06:30pm 27.3 29.5 25.5 90 1.3 N 24 35 13 19 1001.9 1001.8 41.4
15/06:00pm 27.5 30.9 26.1 92 1.0 NNE 20 39 11 21 1001.4 1001.3 41.4
15/05:30pm 27.7 31.3 26.1 91 1.1 NNE 19 28 10 15 1001.3 1001.2 41.0
15/05:00pm 27.8 32.0 26.0 90 1.3 N 15 24 8 13 1001.4 1001.3 40.4
15/04:30pm 27.7 30.6 25.9 90 1.3 N 22 39 12 21 1001.0 1000.9 40.4
15/04:00pm 28.0 32.3 26.6 92 1.0 NNE 17 28 9 15 1001.1 1001.0 40.0
15/03:30pm 27.7 32.1 26.3 92 1.0 NE 15 26 8 14 1001.7 1001.6 40.0
15/03:00pm 27.1 31.7 25.9 93 0.9 NE 13 20 7 11 1002.0 1001.9 40.0
15/02:30pm 27.0 30.6 25.6 92 1.0 ENE 17 28 9 15 1002.4 1002.3 39.0
15/02:13pm 27.6 31.2 25.6 89 1.4 NNE 17 30 9 16 1002.5 1002.4 36.8
15/02:00pm 28.1 32.3 25.3 85 2.0 NNE 13 24 7 13 1002.7 1002.6 36.4
15/01:30pm 28.1 32.5 25.7 87 1.7 NE 13 19 7 10 1003.1 1003.0 36.4
15/01:00pm 28.6 32.7 25.8 85 2.0 NNE 15 22 8 12 1003.7 1003.6 36.4
15/12:30pm 28.0 33.0 26.0 89 1.4 N 11 17 6 9 1004.2 1004.1 36.4
15/12:00pm 27.7 31.8 26.3 92 1.0 NNE 17 26 9 14 1004.7 1004.6 36.4
15/11:30am 27.5 33.4 25.9 91 1.1 NNW 6 11 3 6 1005.0 1004.9 36.4
15/11:00am 25.8 31.9 25.1 96 0.5 NW 2 7 1 4 1005.2 1005.1 36.4
15/10:45am 25.6 31.2 24.9 96 0.5 W 4 7 2 4 1005.4 1005.3 33.6
15/10:30am 25.6 30.2 24.7 95 0.6 NW 9 17 5 9 1005.5 1005.4 30.4
15/10:10am 26.1 30.3 24.7 92 1.0 SW 11 19 6 10 1005.5 1005.4 12.0
15/10:00am 26.8 31.9 25.6 93 0.8 ESE 9 13 5 7 1005.6 1005.5 7.6
15/09:57am 26.9 32.0 25.5 92 1.0 E 9 15 5 8 1005.5 1005.4 6.2
15/09:45am 27.5 32.2 25.5 89 1.4 E 11 15 6 8 1005.6 1005.5 1.8
15/09:30am 28.8 33.5 25.6 83 2.3 ENE 11 17 6 9 1005.6 1005.5 0.2
15/09:00am 28.8 33.2 25.6 83 2.3 SSE 13 17 7 9 1005.7 1005.6 1.0
15/08:30am 27.4 31.6 25.4 89 1.4 SE 13 17 7 9 1005.9 1005.8 1.0
15/08:00am 26.8 32.1 25.0 90 1.3 SE 6 11 3 6 1006.1 1006.0 0.8
15/07:30am 27.6 33.7 25.0 86 1.8 W 2 7 1 4 1006.1 1006.0 0.0
15/07:00am 27.6 32.0 24.4 83 2.2 SE 9 13 5 7 1006.0 1005.9 0.0
15/06:30am 26.6 30.7 24.6 89 1.4 SE 11 15 6 8 1005.9 1005.8 0.0
15/06:00am 25.9 30.1 24.7 93 0.8 SE 11 15 6 8 1005.4 1005.3 0.0
15/05:30am 25.9 30.8 24.7 93 0.8 SE 7 9 4 5 1005.1 1005.0 0.0
15/05:00am 25.9 32.2 24.7 93 0.8 CALM 0 0 0 0 1004.8 1004.7 0.0
15/04:30am 25.8 32.1 24.8 94 0.7 CALM 0 0 0 0 1004.9 1004.8 0.0
15/04:00am 25.6 31.8 24.6 94 0.7 CALM 0 0 0 0 1004.5 1004.4 0.0
15/03:30am 25.8 31.6 24.6 93 0.8 SW 2 7 1 4 1004.6 1004.5 0.0
15/03:00am 25.9 32.3 24.9 94 0.7 CALM 0 6 0 3 1004.6 1004.5 0.0
15/02:30am 25.7 32.0 24.7 94 0.7 CALM 0 0 0 0 1004.7 1004.6 0.0
15/02:00am 25.7 31.8 24.5 93 0.8 CALM 0 0 0 0 1004.7 1004.6 0.0
15/01:30am 25.8 32.0 24.6 93 0.8 CALM 0 0 0 0 1004.9 1004.8 0.0
15/01:00am 25.9 30.7 24.5 92 1.0 W 7 7 4 4 1004.9 1004.8 0.0
15/12:30am 25.8 32.0 24.6 93 0.8 CALM 0 9 0 5 1004.9 1004.8 0.0
15/12:00am 26.2 32.4 24.6 91 1.1 CALM 0 4 0 2 1005.6 1005.5 0.0
 
Date/Time
EST
Temp
°C
App
Temp
°C
Dew
Point
°C
Rel
Hum
%
Delta-T
°C
Wind Press
QNH
hPa
Press
MSL
hPa
Rain since
9am
mm
Dir  Spd
km/h
Gust
km/h
Spd
kts
Gust
kts
14/11:30pm 26.3 31.0 24.3 89 1.4 WNW 7 11 4 6 1005.4 1005.3 0.0
14/11:00pm 26.8 30.4 24.3 86 1.7 SE 13 15 7 8 1005.1 1005.0 0.0
14/10:30pm 26.6 30.5 24.3 87 1.6 SSE 11 13 6 7 1005.6 1005.5 0.0
14/10:00pm 26.4 31.6 24.2 88 1.5 SW 4 9 2 5 1005.5 1005.4 0.0
14/09:30pm 26.4 31.3 24.4 89 1.4 SSE 6 7 3 4 1005.7 1005.6 0.0
14/09:00pm 26.6 31.5 24.3 87 1.6 WSW 6 7 3 4 1005.8 1005.7 0.0
14/08:30pm 26.3 32.1 24.5 90 1.2 WNW 2 6 1 3 1005.9 1005.8 0.0
14/08:00pm 26.7 31.6 24.4 87 1.6 SW 6 7 3 4 1005.6 1005.5 0.0
14/07:30pm 27.0 31.3 24.3 85 1.9 NW 9 13 5 7 1005.8 1005.7 0.0
14/07:00pm 26.9 31.2 24.2 85 1.9 WNW 9 13 5 7 1005.4 1005.3 0.0
14/06:30pm 27.0 30.8 24.1 84 2.0 NW 11 22 6 12 1005.0 1004.9 0.0
14/06:00pm 27.0 30.4 24.1 84 2.0 NNW 13 19 7 10 1004.6 1004.5 0.0
14/05:30pm 27.3 30.1 23.7 81 2.5 NNW 15 20 8 11 1004.1 1004.0 0.0
14/05:00pm 27.5 30.6 24.1 82 2.4 N 15 20 8 11 1003.7 1003.6 0.0
14/04:30pm 27.9 31.3 24.1 80 2.6 N 13 17 7 9 1003.4 1003.3 0.0
14/04:00pm 27.9 31.2 23.9 79 2.8 NNE 13 19 7 10 1003.5 1003.4 0.0
14/03:30pm 28.1 31.0 23.2 74 3.3 N 13 17 7 9 1003.4 1003.3 0.0
14/03:00pm 27.8 29.8 23.0 75 3.3 N 17 20 9 11 1003.7 1003.6 0.0
14/02:30pm 28.7 31.0 23.4 73 3.6 N 17 22 9 12 1004.1 1004.0 0.0
14/02:00pm 30.0 31.6 23.9 70 4.2 N 22 28 12 15 1004.6 1004.5 0.0
14/01:30pm 28.3 29.4 23.0 73 3.6 N 22 28 12 15 1005.0 1004.9 0.0
14/01:00pm 29.4 32.1 24.7 76 3.3 N 19 26 10 14 1005.7 1005.6 0.0
14/12:30pm 28.3 31.0 24.1 78 2.9 N 17 24 9 13 1006.3 1006.2 0.0
14/12:00pm 27.6 29.2 23.2 77 3.0 NNW 20 28 11 15 1007.2 1007.1 0.0
14/11:30am 26.7 30.4 23.2 81 2.4 N 9 11 5 6 1007.3 1007.2 0.0
14/11:00am 27.1 31.1 23.1 79 2.7 WNW 7 13 4 7 1007.4 1007.3 0.0
14/10:30am 26.4 31.0 22.5 79 2.6 SW 2 7 1 4 1007.5 1007.4 0.0
14/10:00am 25.7 29.0 22.6 83 2.1 S 9 11 5 6 1007.6 1007.5 0.0
14/09:30am 25.8 30.1 22.7 83 2.1 WNW 4 7 2 4 1007.8 1007.7 0.0
14/09:00am 25.5 29.1 22.4 83 2.1 WNW 7 7 4 4 1007.1 1007.0 9.6
14/08:30am 24.7 27.5 21.6 83 2.1 W 9 15 5 8 1006.8 1006.7 9.6
14/08:00am 24.3 26.7 21.6 85 1.8 W 11 13 6 7 1006.6 1006.5 9.6
14/07:30am 24.2 26.2 21.5 85 1.8 WNW 13 19 7 10 1006.1 1006.0 9.6
14/07:00am 23.5 25.0 21.2 87 1.5 WNW 15 22 8 12 1005.4 1005.3 9.6
14/06:30am 23.2 25.5 21.3 89 1.2 W 11 15 6 8 1005.3 1005.2 9.6
14/06:00am 22.6 25.5 21.8 95 0.5 WNW 9 11 5 6 1005.2 1005.1 9.6

Other Formats:

Comma delimited format used in spreadsheet applications
http://www.bom.gov.au/fwo/IDQ60801/IDQ60801.94287.axf

JavaScript Object Notation format (JSON) in row-major order
http://www.bom.gov.au/fwo/IDQ60801/IDQ60801.94287.json